sensor_id;sensor_type;location;lat;lon;timestamp;pressure;altitude;pressure_sealevel;temperature;humidity
71917;BME280;59793;46.506;6.674;2023-12-14T00:01:32;96347.81;;;7.70;84.58
71917;BME280;59793;46.506;6.674;2023-12-14T00:03:58;96328.38;;;7.55;84.77
71917;BME280;59793;46.506;6.674;2023-12-14T00:06:23;96299.97;;;7.41;84.60
71917;BME280;59793;46.506;6.674;2023-12-14T00:08:49;96341.91;;;7.57;84.96
71917;BME280;59793;46.506;6.674;2023-12-14T00:11:14;96335.47;;;7.54;85.31
71917;BME280;59793;46.506;6.674;2023-12-14T00:13:39;96299.78;;;7.34;84.46
71917;BME280;59793;46.506;6.674;2023-12-14T00:16:05;96335.75;;;7.49;84.08
71917;BME280;59793;46.506;6.674;2023-12-14T00:18:30;96335.75;;;7.49;84.96
71917;BME280;59793;46.506;6.674;2023-12-14T00:20:56;96362.13;;;7.56;85.62
71917;BME280;59793;46.506;6.674;2023-12-14T00:23:22;96357.38;;;7.46;84.17
71917;BME280;59793;46.506;6.674;2023-12-14T00:25:47;96346.72;;;7.39;84.89
71917;BME280;59793;46.506;6.674;2023-12-14T00:28:13;96346.81;;;7.42;84.78
71917;BME280;59793;46.506;6.674;2023-12-14T00:30:38;96326.47;;;7.24;84.38
71917;BME280;59793;46.506;6.674;2023-12-14T00:33:04;96378.69;;;7.60;84.39
71917;BME280;59793;46.506;6.674;2023-12-14T00:35:29;96324.28;;;7.26;84.38
71917;BME280;59793;46.506;6.674;2023-12-14T00:37:55;96369.38;;;7.47;84.29
71917;BME280;59793;46.506;6.674;2023-12-14T00:40:20;96368.00;;;7.37;85.26
71917;BME280;59793;46.506;6.674;2023-12-14T00:42:45;96374.53;;;7.43;85.52
71917;BME280;59793;46.506;6.674;2023-12-14T00:45:10;96393.72;;;7.48;85.55
71917;BME280;59793;46.506;6.674;2023-12-14T00:47:36;96371.81;;;7.40;86.39
71917;BME280;59793;46.506;6.674;2023-12-14T00:50:01;96392.03;;;7.39;86.48
71917;BME280;59793;46.506;6.674;2023-12-14T00:52:27;96377.97;;;7.32;87.12
71917;BME280;59793;46.506;6.674;2023-12-14T00:54:52;96359.09;;;7.10;86.83
71917;BME280;59793;46.506;6.674;2023-12-14T00:57:18;96415.53;;;7.52;86.43
71917;BME280;59793;46.506;6.674;2023-12-14T00:59:43;96392.59;;;7.33;86.36
71917;BME280;59793;46.506;6.674;2023-12-14T01:02:08;96364.91;;;7.04;87.54
71917;BME280;59793;46.506;6.674;2023-12-14T01:04:34;96402.72;;;7.34;87.11
71917;BME280;59793;46.506;6.674;2023-12-14T01:06:59;96429.84;;;7.54;87.87
71917;BME280;59793;46.506;6.674;2023-12-14T01:09:24;96416.63;;;7.51;87.73
71917;BME280;59793;46.506;6.674;2023-12-14T01:11:50;96399.34;;;7.34;87.91
71917;BME280;59793;46.506;6.674;2023-12-14T01:14:15;96405.44;;;7.38;88.01
71917;BME280;59793;46.506;6.674;2023-12-14T01:16:41;96422.72;;;7.39;88.38
71917;BME280;59793;46.506;6.674;2023-12-14T01:19:06;96425.66;;;7.37;88.31
71917;BME280;59793;46.506;6.674;2023-12-14T01:21:32;96428.13;;;7.46;88.30
71917;BME280;59793;46.506;6.674;2023-12-14T01:23:57;96432.22;;;7.31;88.37
71917;BME280;59793;46.506;6.674;2023-12-14T01:26:23;96453.63;;;7.33;88.10
71917;BME280;59793;46.506;6.674;2023-12-14T01:28:48;96463.84;;;7.38;87.77
71917;BME280;59793;46.506;6.674;2023-12-14T01:31:13;96468.22;;;7.47;88.92
71917;BME280;59793;46.506;6.674;2023-12-14T01:33:39;96457.34;;;7.32;88.45
71917;BME280;59793;46.506;6.674;2023-12-14T01:36:04;96444.06;;;7.13;88.43
71917;BME280;59793;46.506;6.674;2023-12-14T01:38:29;96458.72;;;7.14;89.16
71917;BME280;59793;46.506;6.674;2023-12-14T01:40:55;96489.88;;;7.31;90.38
71917;BME280;59793;46.506;6.674;2023-12-14T01:43:21;96474.44;;;7.14;91.58
71917;BME280;59793;46.506;6.674;2023-12-14T01:45:46;96440.25;;;6.82;91.81
71917;BME280;59793;46.506;6.674;2023-12-14T01:48:12;96503.66;;;7.16;91.93
71917;BME280;59793;46.506;6.674;2023-12-14T01:50:37;96511.22;;;7.17;92.83
71917;BME280;59793;46.506;6.674;2023-12-14T01:53:03;96500.09;;;7.08;92.60
71917;BME280;59793;46.506;6.674;2023-12-14T01:55:28;96491.16;;;6.97;92.73
71917;BME280;59793;46.506;6.674;2023-12-14T01:57:54;96501.84;;;7.04;91.53
71917;BME280;59793;46.506;6.674;2023-12-14T02:03:06;96517.09;;;7.14;92.03
71917;BME280;59793;46.506;6.674;2023-12-14T02:05:32;96515.16;;;7.11;91.92
71917;BME280;59793;46.506;6.674;2023-12-14T02:07:57;96506.13;;;6.97;91.20
71917;BME280;59793;46.506;6.674;2023-12-14T02:10:23;96516.59;;;6.97;91.38
71917;BME280;59793;46.506;6.674;2023-12-14T02:12:49;96524.22;;;7.02;91.69
71917;BME280;59793;46.506;6.674;2023-12-14T02:15:14;96498.81;;;6.78;92.23
71917;BME280;59793;46.506;6.674;2023-12-14T02:17:39;96506.25;;;6.76;91.37
71917;BME280;59793;46.506;6.674;2023-12-14T02:20:05;96519.53;;;6.95;91.01
71917;BME280;59793;46.506;6.674;2023-12-14T02:22:47;96527.16;;;7.00;91.45
71917;BME280;59793;46.506;6.674;2023-12-14T02:25:14;96522.25;;;7.11;90.88
71917;BME280;59793;46.506;6.674;2023-12-14T02:27:39;96555.50;;;7.23;90.83
71917;BME280;59793;46.506;6.674;2023-12-14T02:30:05;96533.06;;;6.97;92.00
71917;BME280;59793;46.506;6.674;2023-12-14T02:32:30;96537.75;;;7.04;92.15
71917;BME280;59793;46.506;6.674;2023-12-14T02:34:56;96541.78;;;7.01;91.91
71917;BME280;59793;46.506;6.674;2023-12-14T02:37:21;96541.56;;;6.94;92.21
71917;BME280;59793;46.506;6.674;2023-12-14T02:39:46;96553.47;;;7.04;91.79
71917;BME280;59793;46.506;6.674;2023-12-14T02:42:12;96574.19;;;7.21;91.29
71917;BME280;59793;46.506;6.674;2023-12-14T02:44:37;96531.19;;;6.98;91.12
71917;BME280;59793;46.506;6.674;2023-12-14T02:47:03;96568.94;;;7.21;91.14
71917;BME280;59793;46.506;6.674;2023-12-14T02:49:28;96569.50;;;7.14;91.01
71917;BME280;59793;46.506;6.674;2023-12-14T02:51:54;96577.56;;;7.09;91.89
71917;BME280;59793;46.506;6.674;2023-12-14T02:54:19;96589.56;;;7.23;90.95
71917;BME280;59793;46.506;6.674;2023-12-14T02:56:44;96585.00;;;7.07;91.19
71917;BME280;59793;46.506;6.674;2023-12-14T02:59:09;96571.91;;;7.07;91.58
71917;BME280;59793;46.506;6.674;2023-12-14T03:01:35;96594.34;;;7.21;90.95
71917;BME280;59793;46.506;6.674;2023-12-14T03:04:00;96582.16;;;7.25;90.33
71917;BME280;59793;46.506;6.674;2023-12-14T03:06:25;96578.97;;;7.19;89.96
71917;BME280;59793;46.506;6.674;2023-12-14T03:08:51;96590.22;;;7.19;90.23
71917;BME280;59793;46.506;6.674;2023-12-14T03:11:22;96614.66;;;7.24;90.63
71917;BME280;59793;46.506;6.674;2023-12-14T03:13:50;96586.38;;;7.17;89.91
71917;BME280;59793;46.506;6.674;2023-12-14T03:16:16;96598.06;;;7.19;89.72
71917;BME280;59793;46.506;6.674;2023-12-14T03:18:45;96598.63;;;7.13;89.84
71917;BME280;59793;46.506;6.674;2023-12-14T03:21:10;96600.28;;;7.05;90.13
71917;BME280;59793;46.506;6.674;2023-12-14T03:23:36;96619.13;;;7.23;90.09
71917;BME280;59793;46.506;6.674;2023-12-14T03:26:01;96587.28;;;6.84;90.16
71917;BME280;59793;46.506;6.674;2023-12-14T03:28:27;96626.47;;;7.17;90.39
71917;BME280;59793;46.506;6.674;2023-12-14T03:30:53;96582.94;;;7.01;90.12
71917;BME280;59793;46.506;6.674;2023-12-14T03:33:18;96610.75;;;7.17;89.73
71917;BME280;59793;46.506;6.674;2023-12-14T03:35:43;96633.00;;;7.11;90.54
71917;BME280;59793;46.506;6.674;2023-12-14T03:38:09;96641.94;;;7.35;90.44
71917;BME280;59793;46.506;6.674;2023-12-14T03:40:34;96631.94;;;7.25;90.29
71917;BME280;59793;46.506;6.674;2023-12-14T03:43:00;96623.19;;;7.21;90.22
71917;BME280;59793;46.506;6.674;2023-12-14T03:45:26;96643.81;;;7.34;90.39
71917;BME280;59793;46.506;6.674;2023-12-14T03:47:51;96651.44;;;7.27;90.05
71917;BME280;59793;46.506;6.674;2023-12-14T03:50:16;96645.47;;;7.14;90.35
71917;BME280;59793;46.506;6.674;2023-12-14T03:52:42;96653.44;;;7.18;90.49
71917;BME280;59793;46.506;6.674;2023-12-14T03:55:07;96609.97;;;6.92;90.72
71917;BME280;59793;46.506;6.674;2023-12-14T03:57:33;96646.13;;;7.11;90.51
71917;BME280;59793;46.506;6.674;2023-12-14T03:59:58;96651.78;;;7.13;90.35
71917;BME280;59793;46.506;6.674;2023-12-14T04:02:24;96662.81;;;7.19;90.26
71917;BME280;59793;46.506;6.674;2023-12-14T04:04:49;96675.69;;;7.24;89.92
71917;BME280;59793;46.506;6.674;2023-12-14T04:07:14;96661.59;;;7.04;89.73
71917;BME280;59793;46.506;6.674;2023-12-14T04:09:39;96657.78;;;7.02;89.64
71917;BME280;59793;46.506;6.674;2023-12-14T04:12:05;96642.94;;;6.93;89.45
71917;BME280;59793;46.506;6.674;2023-12-14T04:14:30;96659.84;;;6.96;90.25
71917;BME280;59793;46.506;6.674;2023-12-14T04:16:56;96659.53;;;6.98;90.62
71917;BME280;59793;46.506;6.674;2023-12-14T04:19:21;96673.84;;;7.00;90.47
71917;BME280;59793;46.506;6.674;2023-12-14T04:21:47;96706.59;;;7.18;90.34
71917;BME280;59793;46.506;6.674;2023-12-14T04:24:13;96655.03;;;6.86;89.95
71917;BME280;59793;46.506;6.674;2023-12-14T04:26:38;96711.28;;;7.25;90.09
71917;BME280;59793;46.506;6.674;2023-12-14T04:29:05;96698.59;;;7.27;89.81
71917;BME280;59793;46.506;6.674;2023-12-14T04:31:31;96703.31;;;7.34;89.71
71917;BME280;59793;46.506;6.674;2023-12-14T04:33:57;96696.97;;;7.23;89.78
71917;BME280;59793;46.506;6.674;2023-12-14T04:36:22;96717.94;;;7.35;90.52
71917;BME280;59793;46.506;6.674;2023-12-14T04:38:47;96684.75;;;7.14;90.22
71917;BME280;59793;46.506;6.674;2023-12-14T04:41:13;96712.91;;;7.30;90.33
71917;BME280;59793;46.506;6.674;2023-12-14T04:43:38;96714.66;;;7.26;90.88
71917;BME280;59793;46.506;6.674;2023-12-14T04:46:04;96730.59;;;7.21;91.25
71917;BME280;59793;46.506;6.674;2023-12-14T04:48:31;96749.38;;;7.23;91.42
71917;BME280;59793;46.506;6.674;2023-12-14T04:50:56;96727.19;;;7.08;91.92
71917;BME280;59793;46.506;6.674;2023-12-14T04:53:21;96723.91;;;6.99;92.23
71917;BME280;59793;46.506;6.674;2023-12-14T04:55:46;96757.47;;;7.17;92.18
71917;BME280;59793;46.506;6.674;2023-12-14T04:58:12;96706.56;;;6.94;92.34
71917;BME280;59793;46.506;6.674;2023-12-14T05:00:37;96725.78;;;7.10;92.26
71917;BME280;59793;46.506;6.674;2023-12-14T05:03:03;96734.41;;;7.23;91.95
71917;BME280;59793;46.506;6.674;2023-12-14T05:05:28;96761.19;;;7.41;91.74
71917;BME280;59793;46.506;6.674;2023-12-14T05:07:53;96753.97;;;7.38;91.27
71917;BME280;59793;46.506;6.674;2023-12-14T05:10:18;96731.91;;;7.14;91.32
71917;BME280;59793;46.506;6.674;2023-12-14T05:12:44;96764.69;;;7.33;90.93
71917;BME280;59793;46.506;6.674;2023-12-14T05:15:09;96753.22;;;7.25;91.05
71917;BME280;59793;46.506;6.674;2023-12-14T05:17:36;96753.69;;;7.06;91.59
71917;BME280;59793;46.506;6.674;2023-12-14T05:20:03;96758.06;;;7.02;92.33
71917;BME280;59793;46.506;6.674;2023-12-14T05:22:29;96802.66;;;7.27;92.23
71917;BME280;59793;46.506;6.674;2023-12-14T05:24:54;96797.81;;;7.16;92.79
71917;BME280;59793;46.506;6.674;2023-12-14T05:27:19;96773.75;;;6.90;93.02
71917;BME280;59793;46.506;6.674;2023-12-14T05:29:45;96817.91;;;7.12;93.51
71917;BME280;59793;46.506;6.674;2023-12-14T05:32:10;96777.06;;;6.78;93.52
71917;BME280;59793;46.506;6.674;2023-12-14T05:34:35;96788.16;;;6.96;93.48
71917;BME280;59793;46.506;6.674;2023-12-14T05:37:01;96822.84;;;7.26;93.35
71917;BME280;59793;46.506;6.674;2023-12-14T05:39:26;96807.88;;;7.14;92.51
71917;BME280;59793;46.506;6.674;2023-12-14T05:41:52;96802.81;;;7.09;92.21
71917;BME280;59793;46.506;6.674;2023-12-14T05:44:17;96797.22;;;6.99;92.74
71917;BME280;59793;46.506;6.674;2023-12-14T05:46:42;96833.63;;;7.12;93.19
71917;BME280;59793;46.506;6.674;2023-12-14T05:49:07;96794.59;;;6.86;93.48
71917;BME280;59793;46.506;6.674;2023-12-14T05:51:33;96821.50;;;7.08;93.16
71917;BME280;59793;46.506;6.674;2023-12-14T05:53:59;96825.09;;;7.03;92.82
71917;BME280;59793;46.506;6.674;2023-12-14T05:56:25;96827.25;;;7.01;92.96
71917;BME280;59793;46.506;6.674;2023-12-14T05:58:51;96831.72;;;7.01;92.98
71917;BME280;59793;46.506;6.674;2023-12-14T06:01:19;96833.13;;;6.98;93.39
71917;BME280;59793;46.506;6.674;2023-12-14T06:03:45;96832.50;;;7.01;93.14
71917;BME280;59793;46.506;6.674;2023-12-14T06:06:11;96848.34;;;7.05;92.88
71917;BME280;59793;46.506;6.674;2023-12-14T06:08:38;96860.06;;;7.19;92.68
71917;BME280;59793;46.506;6.674;2023-12-14T06:11:04;96887.72;;;7.29;92.18
71917;BME280;59793;46.506;6.674;2023-12-14T06:13:31;96875.53;;;7.12;92.80
71917;BME280;59793;46.506;6.674;2023-12-14T06:15:56;96859.78;;;7.00;92.79
71917;BME280;59793;46.506;6.674;2023-12-14T06:18:21;96877.91;;;7.05;93.23
71917;BME280;59793;46.506;6.674;2023-12-14T06:20:47;96897.75;;;7.27;93.10
71917;BME280;59793;46.506;6.674;2023-12-14T06:23:12;96858.88;;;6.96;92.73
71917;BME280;59793;46.506;6.674;2023-12-14T06:25:37;96867.88;;;7.07;92.61
71917;BME280;59793;46.506;6.674;2023-12-14T06:28:03;96890.81;;;7.10;92.50
71917;BME280;59793;46.506;6.674;2023-12-14T06:30:28;96887.94;;;7.03;92.38
71917;BME280;59793;46.506;6.674;2023-12-14T06:32:53;96900.50;;;7.10;93.03
71917;BME280;59793;46.506;6.674;2023-12-14T06:35:18;96925.31;;;7.12;93.29
71917;BME280;59793;46.506;6.674;2023-12-14T06:37:44;96934.06;;;7.16;93.76
71917;BME280;59793;46.506;6.674;2023-12-14T06:40:09;96905.19;;;7.04;93.61
71917;BME280;59793;46.506;6.674;2023-12-14T06:42:35;96952.84;;;7.18;94.10
71917;BME280;59793;46.506;6.674;2023-12-14T06:45:04;96935.53;;;7.05;94.11
71917;BME280;59793;46.506;6.674;2023-12-14T06:47:29;96918.22;;;6.92;94.01
71917;BME280;59793;46.506;6.674;2023-12-14T06:49:55;96940.13;;;7.08;94.06
71917;BME280;59793;46.506;6.674;2023-12-14T06:52:22;96972.53;;;7.25;94.22
71917;BME280;59793;46.506;6.674;2023-12-14T06:54:47;96927.41;;;6.98;94.18
71917;BME280;59793;46.506;6.674;2023-12-14T06:57:12;96967.03;;;7.17;94.07
71917;BME280;59793;46.506;6.674;2023-12-14T06:59:38;96962.63;;;7.09;93.92
71917;BME280;59793;46.506;6.674;2023-12-14T07:02:03;96973.69;;;7.15;93.43
71917;BME280;59793;46.506;6.674;2023-12-14T07:04:28;96923.78;;;6.90;93.35
71917;BME280;59793;46.506;6.674;2023-12-14T07:06:54;96987.03;;;7.43;93.47
71917;BME280;59793;46.506;6.674;2023-12-14T07:09:19;96969.06;;;7.33;92.77
71917;BME280;59793;46.506;6.674;2023-12-14T07:11:45;96993.03;;;7.43;92.56
71917;BME280;59793;46.506;6.674;2023-12-14T07:14:11;97011.03;;;7.66;92.05
71917;BME280;59793;46.506;6.674;2023-12-14T07:16:36;96974.81;;;7.47;91.43
71917;BME280;59793;46.506;6.674;2023-12-14T07:19:01;96983.19;;;7.74;90.07
71917;BME280;59793;46.506;6.674;2023-12-14T07:21:27;96987.91;;;7.68;89.68
71917;BME280;59793;46.506;6.674;2023-12-14T07:23:52;96991.53;;;7.76;88.81
71917;BME280;59793;46.506;6.674;2023-12-14T07:26:17;96977.94;;;7.61;88.84
71917;BME280;59793;46.506;6.674;2023-12-14T07:28:43;97025.56;;;7.97;88.75
71917;BME280;59793;46.506;6.674;2023-12-14T07:31:08;96991.03;;;7.61;89.23
71917;BME280;59793;46.506;6.674;2023-12-14T07:33:33;96994.81;;;7.52;90.05
71917;BME280;59793;46.506;6.674;2023-12-14T07:36:00;97017.75;;;7.55;90.77
71917;BME280;59793;46.506;6.674;2023-12-14T07:38:26;97038.69;;;7.63;91.33
71917;BME280;59793;46.506;6.674;2023-12-14T07:40:51;97043.84;;;7.51;91.94
71917;BME280;59793;46.506;6.674;2023-12-14T07:43:17;97038.44;;;7.35;92.78
71917;BME280;59793;46.506;6.674;2023-12-14T07:45:42;97026.72;;;7.33;93.14
71917;BME280;59793;46.506;6.674;2023-12-14T07:48:08;97061.50;;;7.63;92.62
71917;BME280;59793;46.506;6.674;2023-12-14T07:50:33;97030.50;;;7.44;92.52
71917;BME280;59793;46.506;6.674;2023-12-14T07:52:59;97034.91;;;7.52;92.42
71917;BME280;59793;46.506;6.674;2023-12-14T07:55:24;97067.13;;;7.74;91.91
71917;BME280;59793;46.506;6.674;2023-12-14T07:57:49;97063.94;;;7.68;91.13
71917;BME280;59793;46.506;6.674;2023-12-14T08:00:16;97055.69;;;7.57;91.18
71917;BME280;59793;46.506;6.674;2023-12-14T08:02:42;97059.78;;;7.67;90.94
71917;BME280;59793;46.506;6.674;2023-12-14T08:05:07;97070.78;;;7.81;90.53
71917;BME280;59793;46.506;6.674;2023-12-14T08:07:34;97095.13;;;8.03;90.15
71917;BME280;59793;46.506;6.674;2023-12-14T08:09:59;97084.50;;;7.99;89.68
71917;BME280;59793;46.506;6.674;2023-12-14T08:12:25;97098.81;;;8.02;89.36
71917;BME280;59793;46.506;6.674;2023-12-14T08:14:51;97122.75;;;8.21;89.27
71917;BME280;59793;46.506;6.674;2023-12-14T08:17:16;97094.28;;;8.11;88.69
71917;BME280;59793;46.506;6.674;2023-12-14T08:19:42;97093.94;;;8.12;88.42
71917;BME280;59793;46.506;6.674;2023-12-14T08:22:08;97132.19;;;8.34;88.25
71917;BME280;59793;46.506;6.674;2023-12-14T08:24:36;97115.41;;;8.27;88.42
71917;BME280;59793;46.506;6.674;2023-12-14T08:27:02;97127.34;;;8.24;88.86
71917;BME280;59793;46.506;6.674;2023-12-14T08:29:27;97117.97;;;8.02;89.53
71917;BME280;59793;46.506;6.674;2023-12-14T08:31:52;97125.19;;;8.05;90.06
71917;BME280;59793;46.506;6.674;2023-12-14T08:34:18;97147.34;;;8.17;90.21
71917;BME280;59793;46.506;6.674;2023-12-14T08:36:44;97137.13;;;8.15;89.76
71917;BME280;59793;46.506;6.674;2023-12-14T08:39:09;97167.50;;;8.37;89.45
71917;BME280;59793;46.506;6.674;2023-12-14T08:41:34;97127.16;;;8.08;89.35
71917;BME280;59793;46.506;6.674;2023-12-14T08:44:00;97153.34;;;8.17;87.92
71917;BME280;59793;46.506;6.674;2023-12-14T08:46:25;97133.84;;;8.06;88.16
71917;BME280;59793;46.506;6.674;2023-12-14T08:48:50;97145.78;;;8.15;88.73
71917;BME280;59793;46.506;6.674;2023-12-14T08:51:16;97191.47;;;8.35;88.25
71917;BME280;59793;46.506;6.674;2023-12-14T08:53:42;97178.69;;;8.34;88.25
71917;BME280;59793;46.506;6.674;2023-12-14T08:56:08;97191.66;;;8.51;87.99
71917;BME280;59793;46.506;6.674;2023-12-14T08:58:34;97178.28;;;8.44;87.59
71917;BME280;59793;46.506;6.674;2023-12-14T09:00:59;97176.06;;;8.34;86.97
71917;BME280;59793;46.506;6.674;2023-12-14T09:03:24;97181.59;;;8.41;87.51
71917;BME280;59793;46.506;6.674;2023-12-14T09:05:51;97188.38;;;8.54;85.76
71917;BME280;59793;46.506;6.674;2023-12-14T09:08:16;97172.41;;;8.47;84.54
71917;BME280;59793;46.506;6.674;2023-12-14T09:10:41;97195.56;;;8.66;84.29
71917;BME280;59793;46.506;6.674;2023-12-14T09:13:07;97199.84;;;8.71;84.42
71917;BME280;59793;46.506;6.674;2023-12-14T09:15:33;97203.16;;;8.80;83.94
71917;BME280;59793;46.506;6.674;2023-12-14T09:17:58;97222.91;;;8.98;83.46
71917;BME280;59793;46.506;6.674;2023-12-14T09:20:24;97205.56;;;8.97;82.62
71917;BME280;59793;46.506;6.674;2023-12-14T09:22:50;97206.03;;;9.12;81.94
71917;BME280;59793;46.506;6.674;2023-12-14T09:25:15;97203.84;;;9.14;81.66
71917;BME280;59793;46.506;6.674;2023-12-14T09:27:41;97207.59;;;9.25;81.36
71917;BME280;59793;46.506;6.674;2023-12-14T09:30:07;97231.69;;;9.39;81.12
71917;BME280;59793;46.506;6.674;2023-12-14T09:32:33;97244.53;;;9.53;80.69
71917;BME280;59793;46.506;6.674;2023-12-14T09:34:58;97199.59;;;9.21;79.75
71917;BME280;59793;46.506;6.674;2023-12-14T09:37:23;97221.28;;;9.43;80.05
71917;BME280;59793;46.506;6.674;2023-12-14T09:39:49;97227.44;;;9.47;79.64
71917;BME280;59793;46.506;6.674;2023-12-14T09:42:16;97230.63;;;9.52;79.51
71917;BME280;59793;46.506;6.674;2023-12-14T09:44:43;97269.19;;;9.85;78.75
71917;BME280;59793;46.506;6.674;2023-12-14T09:47:08;97243.53;;;9.57;77.53
71917;BME280;59793;46.506;6.674;2023-12-14T09:49:35;97267.47;;;9.65;77.80
71917;BME280;59793;46.506;6.674;2023-12-14T09:52:01;97269.31;;;9.64;79.18
71917;BME280;59793;46.506;6.674;2023-12-14T09:54:27;97292.44;;;9.71;78.93
71917;BME280;59793;46.506;6.674;2023-12-14T09:56:53;97295.91;;;9.50;79.24
71917;BME280;59793;46.506;6.674;2023-12-14T09:59:19;97274.19;;;9.29;76.71
71917;BME280;59793;46.506;6.674;2023-12-14T10:01:45;97302.59;;;9.36;76.74
71917;BME280;59793;46.506;6.674;2023-12-14T10:04:13;97299.72;;;9.28;76.86
71917;BME280;59793;46.506;6.674;2023-12-14T10:06:41;97307.31;;;9.30;76.96
71917;BME280;59793;46.506;6.674;2023-12-14T10:09:08;97300.47;;;9.29;77.58
71917;BME280;59793;46.506;6.674;2023-12-14T10:11:38;97294.63;;;9.11;77.80
71917;BME280;59793;46.506;6.674;2023-12-14T10:14:09;97289.22;;;8.95;78.34
71917;BME280;59793;46.506;6.674;2023-12-14T10:16:42;97296.00;;;8.96;76.46
71917;BME280;59793;46.506;6.674;2023-12-14T10:19:07;97323.03;;;9.18;76.13
71917;BME280;59793;46.506;6.674;2023-12-14T10:21:32;97319.75;;;9.21;76.58
71917;BME280;59793;46.506;6.674;2023-12-14T10:23:58;97308.31;;;9.04;75.24
71917;BME280;59793;46.506;6.674;2023-12-14T10:26:25;97327.63;;;9.08;75.27
71917;BME280;59793;46.506;6.674;2023-12-14T10:28:52;97291.69;;;8.79;75.34
71917;BME280;59793;46.506;6.674;2023-12-14T10:31:18;97335.09;;;9.19;75.51
71917;BME280;59793;46.506;6.674;2023-12-14T10:33:45;97339.28;;;9.32;75.79
71917;BME280;59793;46.506;6.674;2023-12-14T10:36:12;97310.03;;;9.00;75.25
71917;BME280;59793;46.506;6.674;2023-12-14T10:38:38;97341.81;;;9.07;75.62
71917;BME280;59793;46.506;6.674;2023-12-14T10:41:04;97326.66;;;8.92;74.76
71917;BME280;59793;46.506;6.674;2023-12-14T10:43:30;97316.59;;;8.94;75.97
71917;BME280;59793;46.506;6.674;2023-12-14T10:45:59;97343.25;;;9.05;75.40
71917;BME280;59793;46.506;6.674;2023-12-14T10:48:25;97345.81;;;8.93;75.99
71917;BME280;59793;46.506;6.674;2023-12-14T10:50:51;97346.72;;;8.97;77.28
71917;BME280;59793;46.506;6.674;2023-12-14T10:53:18;97341.19;;;8.90;77.40
71917;BME280;59793;46.506;6.674;2023-12-14T10:55:44;97351.72;;;8.90;75.79
71917;BME280;59793;46.506;6.674;2023-12-14T10:58:10;97355.94;;;8.82;76.18
71917;BME280;59793;46.506;6.674;2023-12-14T11:00:37;97338.78;;;8.64;76.48
71917;BME280;59793;46.506;6.674;2023-12-14T11:03:04;97367.59;;;8.93;76.54
71917;BME280;59793;46.506;6.674;2023-12-14T11:05:32;97376.47;;;8.89;77.16
71917;BME280;59793;46.506;6.674;2023-12-14T11:08:08;97368.00;;;8.83;77.51
71917;BME280;59793;46.506;6.674;2023-12-14T11:10:53;97380.47;;;9.07;77.82
71917;BME280;59793;46.506;6.674;2023-12-14T11:13:22;97360.81;;;8.92;77.23
71917;BME280;59793;46.506;6.674;2023-12-14T11:15:50;97386.72;;;8.81;76.10
71917;BME280;59793;46.506;6.674;2023-12-14T11:18:19;97395.69;;;9.01;76.51
71917;BME280;59793;46.506;6.674;2023-12-14T11:23:12;97403.50;;;8.89;76.32
71917;BME280;59793;46.506;6.674;2023-12-14T11:25:42;97402.84;;;8.92;77.54
71917;BME280;59793;46.506;6.674;2023-12-14T11:28:08;97406.00;;;9.06;77.79
71917;BME280;59793;46.506;6.674;2023-12-14T11:30:35;97361.19;;;8.82;76.14
71917;BME280;59793;46.506;6.674;2023-12-14T11:33:00;97404.50;;;9.18;75.82
71917;BME280;59793;46.506;6.674;2023-12-14T11:35:25;97375.56;;;9.05;75.74
71917;BME280;59793;46.506;6.674;2023-12-14T11:37:51;97390.28;;;9.19;75.34
71917;BME280;59793;46.506;6.674;2023-12-14T11:40:16;97402.78;;;9.22;74.87
71917;BME280;59793;46.506;6.674;2023-12-14T11:43:00;97399.25;;;9.18;75.44
71917;BME280;59793;46.506;6.674;2023-12-14T11:45:26;97381.84;;;8.92;76.09
71917;BME280;59793;46.506;6.674;2023-12-14T11:47:52;97415.88;;;9.09;78.51
71917;BME280;59793;46.506;6.674;2023-12-14T11:50:17;97400.81;;;8.98;77.40
71917;BME280;59793;46.506;6.674;2023-12-14T11:52:43;97416.97;;;9.08;77.41
71917;BME280;59793;46.506;6.674;2023-12-14T11:55:12;97430.78;;;9.18;77.82
71917;BME280;59793;46.506;6.674;2023-12-14T11:57:37;97406.63;;;9.03;76.18
71917;BME280;59793;46.506;6.674;2023-12-14T12:00:04;97420.34;;;9.30;75.90
71917;BME280;59793;46.506;6.674;2023-12-14T12:02:29;97436.94;;;9.43;75.35
71917;BME280;59793;46.506;6.674;2023-12-14T12:04:55;97427.47;;;9.29;76.48
71917;BME280;59793;46.506;6.674;2023-12-14T12:07:20;97418.38;;;9.06;75.75
71917;BME280;59793;46.506;6.674;2023-12-14T12:09:46;97448.50;;;9.29;75.94
71917;BME280;59793;46.506;6.674;2023-12-14T12:12:12;97435.38;;;9.08;76.71
71917;BME280;59793;46.506;6.674;2023-12-14T12:14:39;97453.50;;;9.22;76.91
71917;BME280;59793;46.506;6.674;2023-12-14T12:17:05;97428.94;;;8.97;78.17
71917;BME280;59793;46.506;6.674;2023-12-14T12:19:34;97422.28;;;9.00;77.41
71917;BME280;59793;46.506;6.674;2023-12-14T12:22:00;97447.06;;;9.32;75.69
71917;BME280;59793;46.506;6.674;2023-12-14T12:24:25;97437.75;;;9.22;76.10
71917;BME280;59793;46.506;6.674;2023-12-14T12:26:51;97426.19;;;9.15;76.33
71917;BME280;59793;46.506;6.674;2023-12-14T12:29:16;97464.41;;;9.33;77.01
71917;BME280;59793;46.506;6.674;2023-12-14T12:31:41;97457.53;;;9.20;78.25
71917;BME280;59793;46.506;6.674;2023-12-14T12:34:08;97425.16;;;8.86;76.63
71917;BME280;59793;46.506;6.674;2023-12-14T12:36:33;97434.31;;;9.01;75.96
71917;BME280;59793;46.506;6.674;2023-12-14T12:38:59;97450.94;;;9.14;75.44
71917;BME280;59793;46.506;6.674;2023-12-14T12:41:24;97469.84;;;9.28;75.58
71917;BME280;59793;46.506;6.674;2023-12-14T12:43:49;97447.22;;;9.15;76.48
71917;BME280;59793;46.506;6.674;2023-12-14T12:46:15;97453.16;;;9.03;76.59
71917;BME280;59793;46.506;6.674;2023-12-14T12:48:40;97459.41;;;8.98;76.63
71917;BME280;59793;46.506;6.674;2023-12-14T12:51:05;97480.22;;;9.24;76.36
71917;BME280;59793;46.506;6.674;2023-12-14T12:53:31;97454.53;;;9.09;76.70
71917;BME280;59793;46.506;6.674;2023-12-14T12:55:57;97471.25;;;9.25;76.81
71917;BME280;59793;46.506;6.674;2023-12-14T12:58:22;97453.09;;;9.12;76.89
71917;BME280;59793;46.506;6.674;2023-12-14T13:00:48;97468.69;;;9.17;77.69
71917;BME280;59793;46.506;6.674;2023-12-14T13:03:13;97479.72;;;9.10;77.79
71917;BME280;59793;46.506;6.674;2023-12-14T13:05:38;97487.09;;;9.17;77.77
71917;BME280;59793;46.506;6.674;2023-12-14T13:08:04;97472.34;;;9.03;77.89